Time;durP1;ratioP1;P1;durP2;ratioP2;P2;SDS_P1;SDS_P2;PMS_P1;PMS_P2;Temp;Humidity;BMP_temperature;BMP_pressure;BME280_temperature;BME280_humidity;BME280_pressure;Samples;Min_cycle;Max_cycle;Signal;HPM_P1;HPM_P2
2022/07/21 00:00:13;;;;;;;8.05;5.85;;;;;;;19.26;91.27;100505.19;10177706;29;20817;-78
2022/07/21 00:05:16;;;;;;;8.27;5.40;;;;;;;19.40;91.73;100498.97;10179597;29;20421;-78
2022/07/21 00:10:21;;;;;;;8.32;6.25;;;;;;;19.41;91.57;100476.16;10169212;29;20421;-78
2022/07/21 00:15:27;;;;;;;12.27;6.45;;;;;;;19.35;91.75;100425.13;10175428;29;20055;-77
2022/07/21 00:20:31;;;;;;;9.70;7.57;;;;;;;19.53;91.34;100411.19;10174099;29;20056;-77
2022/07/21 00:25:34;;;;;;;13.48;8.98;;;;;;;19.44;90.94;100418.59;10173603;29;20048;-77
2022/07/21 00:30:38;;;;;;;11.38;7.82;;;;;;;19.36;91.33;100437.72;10174553;29;20047;-76
2022/07/21 00:35:41;;;;;;;11.77;7.60;;;;;;;19.41;92.03;100438.84;10174515;29;20047;-76
2022/07/21 00:40:44;;;;;;;13.00;8.02;;;;;;;19.46;90.22;100449.22;10173904;29;20099;-76
2022/07/21 00:45:48;;;;;;;13.32;8.38;;;;;;;19.46;90.51;100458.22;10175305;29;20100;-76
2022/07/21 00:50:51;;;;;;;13.13;8.40;;;;;;;19.41;90.54;100474.28;10175296;29;20086;-76
2022/07/21 00:55:54;;;;;;;13.70;8.88;;;;;;;19.19;89.54;100448.72;10173987;29;20066;-76
2022/07/21 01:00:59;;;;;;;15.30;9.07;;;;;;;19.32;92.34;100441.84;10172404;29;20052;-77
2022/07/21 01:06:02;;;;;;;13.85;8.45;;;;;;;19.69;92.29;100473.75;10174710;29;20043;-77
2022/07/21 01:11:06;;;;;;;14.70;9.40;;;;;;;19.37;88.20;100496.63;10174913;29;20051;-77
2022/07/21 01:16:10;;;;;;;16.90;9.10;;;;;;;18.44;91.18;100530.78;10174669;29;20058;-76
2022/07/21 01:21:31;;;;;;;12.32;8.75;;;;;;;18.39;90.83;100573.09;10174826;29;20366;-77
2022/07/21 01:26:41;;;;;;;12.95;10.45;;;;;;;18.26;92.35;100573.59;10170800;29;20051;-77
2022/07/21 01:31:46;;;;;;;14.98;9.98;;;;;;;18.64;90.05;100538.56;10171396;29;20048;-76
2022/07/21 01:36:50;;;;;;;20.00;9.98;;;;;;;18.55;90.69;100532.28;10172241;29;20059;-76
2022/07/21 01:41:53;;;;;;;20.55;12.98;;;;;;;18.46;92.20;100504.25;10173786;29;20428;-77
2022/07/21 01:46:56;;;;;;;14.57;12.40;;;;;;;18.70;97.56;100488.88;10172104;29;20067;-77
2022/07/21 01:52:01;;;;;;;17.38;12.65;;;;;;;19.09;92.37;100466.28;10174413;29;20062;-77
2022/07/21 01:57:04;;;;;;;12.95;11.32;;;;;;;19.42;91.43;100454.19;10171312;29;20052;-77
2022/07/21 02:02:07;;;;;;;14.05;11.48;;;;;;;19.41;90.64;100443.47;10172626;29;20043;-76
2022/07/21 02:07:11;;;;;;;14.27;11.48;;;;;;;19.48;91.40;100440.88;10171757;29;20605;-76
2022/07/21 02:12:14;;;;;;;18.58;12.25;;;;;;;19.57;91.30;100437.94;10175424;29;20382;-76
2022/07/21 02:17:17;;;;;;;20.20;13.48;;;;;;;19.61;91.42;100406.59;10178395;29;20063;-77
2022/07/21 02:22:21;;;;;;;13.80;12.15;;;;;;;19.65;91.40;100418.78;10180189;29;20089;-76
2022/07/21 02:27:24;;;;;;;17.02;12.40;;;;;;;19.66;91.52;100385.09;10179977;29;20056;-76
2022/07/21 02:32:27;;;;;;;16.15;12.95;;;;;;;19.68;90.89;100353.03;10179184;29;20528;-76
2022/07/21 02:37:31;;;;;;;15.02;13.13;;;;;;;18.77;90.69;100390.06;10179043;29;20153;-76
2022/07/21 02:42:34;;;;;;;20.33;14.77;;;;;;;18.85;90.86;100418.28;10178733;29;20115;-76
2022/07/21 02:47:49;;;;;;;18.92;15.82;;;;;;;19.05;90.46;100432.28;10176012;29;20548;-76
2022/07/21 02:52:55;;;;;;;19.80;15.10;;;;;;;18.94;90.03;100458.03;10178711;29;20074;-75
2022/07/21 02:58:05;;;;;;;24.25;14.95;;;;;;;18.88;91.03;100462.31;10178397;29;20058;-76
2022/07/21 03:03:09;;;;;;;19.75;15.55;;;;;;;18.91;92.32;100461.97;10177506;29;20178;-76
2022/07/21 03:08:13;;;;;;;18.15;13.77;;;;;;;19.26;91.13;100470.63;10178138;29;20137;-76
2022/07/21 03:13:17;;;;;;;18.58;14.85;;;;;;;19.31;90.97;100484.56;10177421;29;20111;-77
2022/07/21 03:18:20;;;;;;;20.02;15.57;;;;;;;19.30;91.05;100479.28;10139019;29;20059;-76
2022/07/21 03:23:24;;;;;;;19.20;14.38;;;;;;;19.39;90.78;100472.75;10137069;29;20139;-75
2022/07/21 03:28:27;;;;;;;17.35;15.23;;;;;;;19.61;91.80;100469.25;10138209;29;20135;-75
2022/07/21 03:33:30;;;;;;;18.27;15.13;;;;;;;19.66;90.33;100465.97;10151652;29;20072;-76
2022/07/21 03:38:34;;;;;;;18.60;14.43;;;;;;;19.54;90.39;100468.22;10136258;29;20048;-76
2022/07/21 03:43:37;;;;;;;19.92;15.00;;;;;;;19.22;90.21;100477.44;10138029;29;20092;-76
2022/07/21 03:48:40;;;;;;;19.02;16.45;;;;;;;19.20;91.12;100477.66;10144400;29;20196;-76
2022/07/21 03:53:44;;;;;;;19.48;16.50;;;;;;;19.22;91.49;100478.28;10174373;29;21354;-75
2022/07/21 03:58:47;;;;;;;24.17;19.30;;;;;;;19.14;90.47;100486.53;10176845;29;20130;-76
2022/07/21 04:03:50;;;;;;;18.85;13.02;;;;;;;17.50;95.34;100493.16;10176493;29;20047;-76
2022/07/21 04:08:54;;;;;;;19.25;16.35;;;;;;;17.20;95.04;100495.50;10176081;29;20047;-78
2022/07/21 04:13:58;;;;;;;24.50;17.88;;;;;;;17.22;94.51;100521.47;10175920;29;20052;-77
2022/07/21 04:19:01;;;;;;;16.52;13.00;;;;;;;16.92;95.45;100514.69;10175734;29;20047;-76
2022/07/21 04:24:06;;;;;;;13.52;11.30;;;;;;;16.86;94.81;100514.47;10175112;29;20115;-76
2022/07/21 04:29:08;;;;;;;16.08;10.98;;;;;;;16.78;94.52;100524.31;10176357;29;20055;-75
2022/07/21 04:34:11;;;;;;;19.23;11.45;;;;;;;16.97;93.82;100533.19;10181263;29;20505;-76
2022/07/21 04:39:15;;;;;;;15.90;9.80;;;;;;;16.99;92.15;100551.00;10174884;29;20480;-76
2022/07/21 04:44:18;;;;;;;8.82;6.82;;;;;;;16.75;94.16;100530.03;10177676;29;21413;-77
2022/07/21 04:49:22;;;;;;;8.45;6.28;;;;;;;16.68;94.03;100511.88;10177504;29;20050;-77
2022/07/21 04:54:26;;;;;;;20.98;8.60;;;;;;;17.24;92.29;100535.69;10175483;29;20055;-77
2022/07/21 04:59:29;;;;;;;10.18;7.65;;;;;;;17.31;91.50;100549.50;10174761;29;20099;-76
2022/07/21 05:04:33;;;;;;;8.23;6.65;;;;;;;17.16;92.22;100548.41;10173189;29;20521;-76
2022/07/21 05:09:37;;;;;;;7.93;6.93;;;;;;;17.11;92.93;100553.44;10170101;29;20087;-76
2022/07/21 05:14:40;;;;;;;11.80;8.40;;;;;;;17.35;93.16;100550.00;10174012;29;20063;-76
2022/07/21 05:19:45;;;;;;;9.70;8.07;;;;;;;17.51;91.71;100549.22;10173669;29;20124;-75
2022/07/21 05:24:49;;;;;;;10.32;7.75;;;;;;;17.69;91.38;100548.06;10174486;29;20129;-75
2022/07/21 05:29:52;;;;;;;12.38;8.75;;;;;;;17.68;91.65;100543.63;10135095;29;20247;-75
2022/07/21 05:34:55;;;;;;;11.40;9.77;;;;;;;17.83;91.77;100543.84;10135053;29;20082;-75
2022/07/21 05:40:00;;;;;;;11.80;9.45;;;;;;;18.10;91.71;100539.09;10164038;29;20120;-75
2022/07/21 05:45:04;;;;;;;14.02;9.65;;;;;;;18.15;91.11;100528.56;10176221;29;20056;-75
2022/07/21 05:50:09;;;;;;;10.50;8.02;;;;;;;18.16;90.95;100529.44;10182187;29;20520;-75
2022/07/21 05:55:13;;;;;;;18.27;12.65;;;;;;;18.45;91.09;100534.34;10179446;29;20133;-74
2022/07/21 06:00:17;;;;;;;17.83;15.88;;;;;;;18.27;90.81;100546.25;10176518;29;20063;-75
2022/07/21 06:05:20;;;;;;;23.35;18.25;;;;;;;18.07;90.68;100556.63;10177435;29;20413;-75
2022/07/21 06:10:24;;;;;;;24.63;18.63;;;;;;;18.24;91.09;100564.75;10176889;29;20051;-75
2022/07/21 06:15:31;;;;;;;29.08;21.77;;;;;;;18.35;91.73;100573.44;10180376;29;20158;-76
2022/07/21 06:20:34;;;;;;;30.65;22.88;;;;;;;18.62;90.92;100579.53;10176390;29;20087;-76
2022/07/21 06:25:38;;;;;;;30.30;23.63;;;;;;;18.97;90.69;100580.16;10179528;29;21291;-75
2022/07/21 06:30:42;;;;;;;32.78;24.25;;;;;;;19.00;89.03;100591.53;10176026;29;20055;-76
2022/07/21 06:35:45;;;;;;;30.25;24.27;;;;;;;18.43;89.54;100597.06;10174683;29;20051;-77
2022/07/21 06:40:49;;;;;;;31.40;24.38;;;;;;;18.69;90.16;100607.75;10178517;29;20454;-76
2022/07/21 06:45:52;;;;;;;26.98;22.58;;;;;;;18.88;89.08;100603.84;10179477;29;20193;-77
2022/07/21 06:50:58;;;;;;;24.60;20.33;;;;;;;18.78;87.64;100612.19;10176044;29;20051;-77
2022/07/21 06:56:02;;;;;;;23.92;20.85;;;;;;;18.86;87.55;100616.75;10173832;29;20051;-76
2022/07/21 07:01:06;;;;;;;27.67;21.25;;;;;;;18.55;87.51;100627.50;10180439;29;20092;-77
2022/07/21 07:06:10;;;;;;;24.75;19.20;;;;;;;18.47;85.32;100614.75;10178324;29;20071;-77
2022/07/21 07:11:14;;;;;;;22.90;19.30;;;;;;;18.91;85.59;100613.53;10176151;28;20138;-77
2022/07/21 07:16:17;;;;;;;22.05;18.15;;;;;;;18.88;81.98;100619.31;10177237;28;20114;-76
2022/07/21 07:21:20;;;;;;;19.42;17.42;;;;;;;19.19;84.34;100620.25;10173709;28;20079;-76
2022/07/21 07:26:24;;;;;;;20.80;18.30;;;;;;;19.48;81.22;100623.41;10175454;28;20067;-75
2022/07/21 07:31:27;;;;;;;19.98;17.92;;;;;;;20.27;83.49;100614.09;10173668;28;20142;-76
2022/07/21 07:36:30;;;;;;;19.10;17.20;;;;;;;20.09;78.81;100624.44;10174255;28;20269;-77
2022/07/21 07:41:34;;;;;;;19.30;17.17;;;;;;;19.15;80.75;100623.50;10176615;28;20062;-76
2022/07/21 07:46:37;;;;;;;21.60;17.83;;;;;;;19.53;81.63;100627.28;10176032;29;20183;-77
2022/07/21 07:51:41;;;;;;;19.80;17.75;;;;;;;19.50;79.75;100630.38;10189360;28;20060;-76
2022/07/21 07:56:45;;;;;;;19.20;17.17;;;;;;;20.07;78.87;100631.94;10174923;29;20130;-77
2022/07/21 08:01:47;;;;;;;22.15;17.92;;;;;;;20.59;75.60;100639.41;10174709;29;21358;-76
2022/07/21 08:06:50;;;;;;;18.50;16.58;;;;;;;20.28;75.96;100634.84;10174088;29;20507;-76
2022/07/21 08:11:55;;;;;;;19.00;17.02;;;;;;;20.09;77.33;100636.19;10171678;29;20146;-76
2022/07/21 08:16:58;;;;;;;18.90;16.10;;;;;;;20.15;76.32;100640.06;10172680;29;21302;-76
2022/07/21 08:22:01;;;;;;;18.92;16.90;;;;;;;20.25;76.64;100637.13;10175977;29;20055;-77
2022/07/21 08:27:21;;;;;;;18.10;16.17;;;;;;;20.18;77.43;100622.50;10175641;29;20059;-76
2022/07/21 08:32:23;;;;;;;16.52;14.25;;;;;;;19.83;76.41;100627.50;10175282;29;20505;-77
2022/07/21 08:37:26;;;;;;;13.75;12.40;;;;;;;19.72;74.60;100631.50;10171046;29;21904;-76
2022/07/21 08:42:30;;;;;;;15.38;12.63;;;;;;;20.48;71.71;100628.94;10173927;29;20107;-78
2022/07/21 08:47:35;;;;;;;16.67;11.20;;;;;;;21.47;68.34;100631.53;10173608;29;20044;-77
2022/07/21 08:52:46;;;;;;;12.27;10.52;;;;;;;22.85;64.68;100627.75;10180345;29;20056;-77
2022/07/21 08:57:50;;;;;;;11.05;9.98;;;;;;;22.55;63.17;100631.53;10175562;29;20047;-77
2022/07/21 09:03:09;;;;;;;10.02;9.02;;;;;;;22.17;63.86;100627.34;10177654;29;20052;-77
2022/07/21 09:08:12;;;;;;;10.73;9.50;;;;;;;23.04;62.78;100627.06;10174786;29;20055;-77
2022/07/21 09:13:18;;;;;;;10.90;9.80;;;;;;;23.31;59.87;100624.47;10177392;29;20191;-77
2022/07/21 09:18:21;;;;;;;13.73;9.98;;;;;;;22.98;62.45;100614.13;10176516;29;20088;-77
2022/07/21 09:23:25;;;;;;;10.65;9.63;;;;;;;22.78;61.21;100620.31;10174722;29;20052;-77
2022/07/21 09:28:31;;;;;;;10.70;9.27;;;;;;;21.88;63.66;100621.75;10174027;29;20039;-76
2022/07/21 09:33:36;;;;;;;10.43;8.98;;;;;;;21.82;64.52;100619.81;10187906;29;20135;-77
2022/07/21 09:38:41;;;;;;;10.32;9.02;;;;;;;23.33;59.96;100612.28;10172731;29;20251;-76
2022/07/21 09:43:47;;;;;;;9.73;8.73;;;;;;;23.27;60.56;100609.50;10170871;29;20139;-76
2022/07/21 09:48:52;;;;;;;9.95;8.93;;;;;;;23.01;58.28;100611.03;10173524;29;20591;-76
2022/07/21 09:54:15;;;;;;;10.23;9.07;;;;;;;23.37;57.74;100616.31;10172005;29;20054;-76
2022/07/21 09:59:20;;;;;;;13.68;9.27;;;;;;;23.62;57.43;100608.41;10170844;29;20102;-76
2022/07/21 10:04:43;;;;;;;11.45;8.02;;;;;;;22.88;57.50;100619.16;10171806;29;20126;-76
2022/07/21 10:10:07;;;;;;;10.40;9.02;;;;;;;22.33;61.25;100621.59;10170962;29;20092;-76
2022/07/21 10:15:11;;;;;;;11.00;9.43;;;;;;;21.97;62.76;100616.16;10167473;29;20130;-77
2022/07/21 10:20:19;;;;;;;11.25;10.15;;;;;;;21.72;64.42;100611.03;10170939;29;20056;-76
2022/07/21 10:25:23;;;;;;;11.15;8.80;;;;;;;21.79;63.18;100614.72;10171973;29;20674;-76
2022/07/21 10:30:39;;;;;;;11.75;10.65;;;;;;;22.57;60.97;100603.94;10171786;29;20059;-77
2022/07/21 10:35:43;;;;;;;11.63;10.50;;;;;;;22.43;60.64;100599.38;10176228;29;20047;-77
2022/07/21 10:40:47;;;;;;;13.00;11.80;;;;;;;22.42;63.32;100608.63;10175041;29;20059;-77
2022/07/21 10:51:31;;;;;;;10.63;9.73;;;;;;;22.38;61.28;100599.09;10437177;23;20284;-78
2022/07/21 10:56:33;;;;;;;8.52;7.32;;;;;;;22.43;59.20;100602.09;10240042;29;20058;-78
2022/07/21 11:01:38;;;;;;;8.73;7.47;;;;;;;24.43;55.81;100588.34;10242938;29;20082;-78
2022/07/21 11:06:43;;;;;;;7.85;7.15;;;;;;;23.69;55.51;100599.34;10245724;29;20047;-79
2022/07/21 11:12:00;;;;;;;7.47;6.78;;;;;;;24.14;53.39;100578.59;10246209;29;20047;-78
2022/07/21 11:17:03;;;;;;;7.40;6.70;;;;;;;24.94;52.77;100582.19;10244376;28;20461;-76
2022/07/21 11:22:11;;;;;;;8.35;7.60;;;;;;;24.14;54.88;100572.28;10219481;29;20131;-78
2022/07/21 11:27:15;;;;;;;8.23;6.90;;;;;;;22.95;56.97;100577.03;10248343;29;20115;-77
2022/07/21 11:32:20;;;;;;;9.23;7.30;;;;;;;21.25;68.43;100595.06;10220761;29;20489;-77
2022/07/21 11:37:30;;;;;;;8.85;8.02;;;;;;;20.32;73.31;100597.19;10234163;29;20040;-77
2022/07/21 11:42:39;;;;;;;11.07;10.00;;;;;;;20.15;74.22;100592.88;10236802;29;20548;-77
2022/07/21 11:47:42;;;;;;;21.23;13.18;;;;;;;19.98;80.18;100606.63;10239151;28;20102;-79
2022/07/21 11:52:55;;;;;;;14.68;10.45;;;;;;;18.16;97.34;100611.00;10246152;29;20488;-76
2022/07/21 11:57:58;;;;;;;16.27;14.57;;;;;;;18.26;100.00;100608.94;10224209;28;20809;-76
2022/07/21 12:03:05;;;;;;;14.70;12.88;;;;;;;19.13;100.00;100599.19;10233512;29;20054;-76
2022/07/21 12:08:11;;;;;;;15.60;13.40;;;;;;;19.09;99.14;100602.41;10224790;29;20126;-77
2022/07/21 12:13:14;;;;;;;21.15;17.25;;;;;;;19.62;100.00;100606.31;10248954;28;20036;-77
2022/07/21 12:18:20;;;;;;;22.40;16.67;;;;;;;19.61;99.66;100621.84;10227991;28;20051;-77
2022/07/21 12:23:26;;;;;;;20.33;16.25;;;;;;;19.54;100.00;100622.69;10235797;28;20044;-77
2022/07/21 12:28:45;;;;;;;19.30;17.33;;;;;;;20.51;94.18;100604.84;10244769;29;20051;-77
2022/07/21 12:33:49;;;;;;;17.77;14.90;;;;;;;20.72;89.87;100609.63;10226571;29;20461;-77
2022/07/21 12:44:42;;;;;;;12.82;11.55;;;;;;;22.66;100.00;100593.72;10249253;28;20119;-77
2022/07/21 12:49:58;;;;;;;14.45;11.15;;;;;;;24.55;95.46;100585.84;10227789;28;20090;-77
2022/07/21 12:55:16;;;;;;;11.80;10.70;;;;;;;23.55;88.39;100592.97;10248686;28;20043;-76
2022/07/21 13:00:19;;;;;;;12.82;11.48;;;;;;;22.59;90.27;100599.13;10219382;28;20055;-77
2022/07/21 13:05:23;;;;;;;15.30;13.70;;;;;;;21.89;90.04;100582.44;10234055;29;20161;-77
2022/07/21 13:10:28;;;;;;;33.28;19.85;;;;;;;20.47;97.63;100595.34;10239117;29;20040;-78
2022/07/21 13:15:31;;;;;;;23.05;20.70;;;;;;;21.18;97.81;100606.78;10219450;28;20062;-76
2022/07/21 13:20:34;;;;;;;20.15;16.15;;;;;;;21.52;95.10;100605.31;10218352;29;20051;-76
2022/07/21 13:25:38;;;;;;;17.13;14.95;;;;;;;21.85;96.55;100610.38;10232900;28;20055;-76
2022/07/21 13:30:41;;;;;;;16.88;13.88;;;;;;;21.42;91.99;100586.50;10236798;28;20048;-76
2022/07/21 13:35:45;;;;;;;13.85;12.18;;;;;;;21.42;92.58;100591.13;10217475;29;20052;-76
2022/07/21 13:40:49;;;;;;;14.10;12.68;;;;;;;21.12;91.79;100577.50;10219987;28;20150;-76
2022/07/21 13:46:12;;;;;;;20.67;15.68;;;;;;;20.81;91.83;100568.59;10244558;28;20087;-76
2022/07/21 13:51:16;;;;;;;16.92;15.00;;;;;;;20.58;91.36;100576.84;10251206;28;20055;-77
2022/07/21 13:56:21;;;;;;;17.00;15.15;;;;;;;20.18;89.37;100598.78;10239327;29;20098;-76
2022/07/21 14:01:25;;;;;;;24.52;17.17;;;;;;;18.40;95.54;100626.47;10225175;28;20035;-77
2022/07/21 14:06:30;;;;;;;23.95;19.60;;;;;;;18.55;95.12;100614.72;10240684;28;20114;-77
2022/07/21 14:11:35;;;;;;;22.67;18.55;;;;;;;19.01;94.28;100617.75;10244912;28;20035;-76
2022/07/21 14:16:38;;;;;;;25.60;21.85;;;;;;;19.32;93.86;100606.09;10223686;29;20051;-75
2022/07/21 14:21:41;;;;;;;20.15;17.98;;;;;;;19.83;90.61;100612.00;10226237;29;20488;-76
2022/07/21 14:26:45;;;;;;;21.48;19.25;;;;;;;20.27;93.43;100600.44;10234092;29;20130;-77
2022/07/21 14:31:49;;;;;;;18.92;17.00;;;;;;;20.06;89.40;100595.66;10241757;29;20054;-76
2022/07/21 14:36:52;;;;;;;19.80;17.60;;;;;;;19.86;90.35;100589.84;10239970;28;20090;-76
2022/07/21 14:41:56;;;;;;;25.88;20.17;;;;;;;19.56;91.45;100591.53;10254113;28;20051;-76
2022/07/21 14:46:59;;;;;;;26.70;22.77;;;;;;;20.06;91.01;100594.81;10236084;28;20086;-75
2022/07/21 14:52:02;;;;;;;24.33;21.73;;;;;;;20.45;90.70;100594.69;10226713;29;20054;-76
2022/07/21 14:57:06;;;;;;;20.88;18.67;;;;;;;20.46;90.19;100582.75;10248331;29;20054;-76
2022/07/21 15:02:12;;;;;;;21.75;19.42;;;;;;;21.19;91.65;100577.56;10227108;29;20040;-77
2022/07/21 15:07:23;;;;;;;29.15;20.50;;;;;;;21.42;89.24;100583.78;10234021;29;20397;-76
2022/07/21 15:12:27;;;;;;;17.88;16.02;;;;;;;20.78;84.87;100583.47;10234512;29;20063;-76
2022/07/21 15:17:30;;;;;;;17.27;14.82;;;;;;;20.51;87.78;100591.22;10226117;29;20054;-77
2022/07/21 15:22:33;;;;;;;16.58;12.93;;;;;;;19.96;82.38;100586.84;10244239;29;20094;-76
2022/07/21 15:27:38;;;;;;;18.88;12.93;;;;;;;19.79;84.53;100588.00;10236090;28;20083;-77
2022/07/21 15:32:43;;;;;;;12.50;10.40;;;;;;;19.49;83.51;100590.50;10246013;29;20512;-76
2022/07/21 15:37:46;;;;;;;15.20;11.32;;;;;;;19.45;85.01;100605.53;10233738;28;20047;-76
2022/07/21 15:42:51;;;;;;;14.90;12.00;;;;;;;19.49;86.27;100590.50;10230312;29;20482;-76
2022/07/21 15:47:54;;;;;;;13.32;11.93;;;;;;;19.76;87.04;100591.94;10229746;29;20123;-76
2022/07/21 15:52:57;;;;;;;17.55;15.15;;;;;;;19.85;87.33;100585.38;10244348;29;20113;-76
2022/07/21 15:58:01;;;;;;;19.58;15.38;;;;;;;19.66;86.71;100597.63;10221538;29;20051;-77
2022/07/21 16:03:04;;;;;;;11.23;10.13;;;;;;;19.34;86.89;100595.88;10239106;29;20695;-76
2022/07/21 16:08:07;;;;;;;10.00;8.95;;;;;;;19.00;86.09;100599.72;10233292;28;20055;-77
2022/07/21 16:13:11;;;;;;;10.00;9.00;;;;;;;19.12;85.09;100604.81;10235712;29;20035;-76
2022/07/21 16:18:14;;;;;;;11.70;8.77;;;;;;;19.26;84.97;100612.25;10237280;28;20947;-76
2022/07/21 16:23:17;;;;;;;11.57;9.38;;;;;;;19.48;84.46;100604.34;10227599;29;20052;-76
2022/07/21 16:28:22;;;;;;;11.85;10.00;;;;;;;19.64;85.43;100604.28;10225506;29;20167;-76
2022/07/21 16:33:25;;;;;;;12.52;9.25;;;;;;;19.40;85.68;100607.94;10219529;29;20114;-76
2022/07/21 16:38:27;;;;;;;11.98;10.77;;;;;;;19.64;86.60;100607.84;10241582;29;20047;-76
2022/07/21 16:43:32;;;;;;;12.27;10.25;;;;;;;19.97;83.77;100607.66;10229066;29;20051;-76
2022/07/21 16:48:35;;;;;;;10.25;9.15;;;;;;;20.21;84.29;100605.75;10237042;29;20488;-76
2022/07/21 16:53:38;;;;;;;10.57;9.05;;;;;;;19.75;82.81;100603.88;10243470;28;20509;-76
2022/07/21 16:58:42;;;;;;;12.05;10.77;;;;;;;19.58;84.76;100604.97;10239214;29;20079;-76
2022/07/21 17:03:45;;;;;;;10.20;9.13;;;;;;;19.35;87.05;100613.06;10241063;28;20070;-77
2022/07/21 17:08:48;;;;;;;10.95;8.73;;;;;;;21.00;84.88;100593.44;10222379;29;20043;-77
2022/07/21 17:13:52;;;;;;;13.77;8.60;;;;;;;20.80;79.28;100600.50;10236849;29;20052;-77
2022/07/21 17:18:56;;;;;;;10.60;9.43;;;;;;;20.52;80.53;100590.19;10231158;29;20404;-77
2022/07/21 17:23:59;;;;;;;8.07;7.28;;;;;;;19.21;82.30;100596.41;10233005;28;20044;-77
2022/07/21 17:29:03;;;;;;;13.98;9.02;;;;;;;19.24;82.36;100603.38;10233395;29;20047;-77
2022/07/21 17:34:06;;;;;;;10.48;9.15;;;;;;;18.58;83.68;100603.50;10233502;29;20043;-77
2022/07/21 17:39:09;;;;;;;11.05;9.90;;;;;;;18.39;85.04;100611.19;10238882;29;20130;-77
2022/07/21 17:44:13;;;;;;;9.73;8.73;;;;;;;20.94;78.26;100598.81;10247393;29;20409;-77
2022/07/21 17:49:16;;;;;;;14.40;11.43;;;;;;;18.95;80.14;100606.69;10257162;29;20054;-77
2022/07/21 17:54:21;;;;;;;18.75;14.52;;;;;;;18.20;83.12;100615.91;10243383;28;20040;-78
2022/07/21 17:59:25;;;;;;;21.10;17.30;;;;;;;18.42;83.25;100608.94;10252604;29;20047;-78
2022/07/21 18:04:28;;;;;;;22.95;17.80;;;;;;;18.15;84.18;100623.72;10250756;29;20052;-77
2022/07/21 18:09:30;;;;;;;21.70;18.30;;;;;;;18.28;83.98;100624.09;10244010;28;20516;-79
2022/07/21 18:14:35;;;;;;;20.50;17.33;;;;;;;18.12;84.69;100624.91;10244855;28;20107;-79
2022/07/21 18:19:37;;;;;;;23.83;16.55;;;;;;;17.84;85.33;100621.59;10243331;29;20051;-78
2022/07/21 18:24:40;;;;;;;16.58;13.57;;;;;;;17.99;85.16;100624.56;10212146;28;20425;-78
2022/07/21 18:29:45;;;;;;;15.93;11.65;;;;;;;17.95;84.59;100625.03;10202886;28;20056;-78
2022/07/21 18:34:47;;;;;;;12.48;10.75;;;;;;;17.72;84.11;100622.94;10211643;28;20047;-78
2022/07/21 18:39:50;;;;;;;13.00;11.70;;;;;;;18.06;83.85;100624.75;10214788;28;20078;-77
2022/07/21 18:44:54;;;;;;;13.40;10.48;;;;;;;17.95;83.75;100627.75;10203751;28;20055;-78
2022/07/21 18:49:57;;;;;;;12.07;10.93;;;;;;;18.17;82.89;100626.28;10196053;28;20133;-78
2022/07/21 18:55:00;;;;;;;13.70;11.23;;;;;;;18.31;82.00;100628.34;10215172;28;20133;-77
2022/07/21 19:00:06;;;;;;;15.32;12.80;;;;;;;17.96;83.11;100630.28;10212042;28;21377;-77
2022/07/21 19:05:16;;;;;;;12.45;11.18;;;;;;;17.65;83.73;100639.03;10199885;28;20054;-77
2022/07/21 19:10:23;;;;;;;16.60;12.93;;;;;;;17.81;83.21;100640.97;10221963;28;20050;-78
2022/07/21 19:15:28;;;;;;;15.85;13.57;;;;;;;17.72;83.25;100650.13;10232158;28;20062;-77
2022/07/21 19:20:31;;;;;;;18.60;14.90;;;;;;;17.58;84.23;100656.16;10242361;28;20066;-76
2022/07/21 19:25:35;;;;;;;18.70;16.25;;;;;;;17.65;84.20;100662.63;10231344;28;20050;-76
2022/07/21 19:30:39;;;;;;;17.77;14.77;;;;;;;17.97;82.67;100661.94;10226226;28;21152;-76
2022/07/21 19:35:42;;;;;;;21.63;16.38;;;;;;;17.88;82.93;100666.47;10222461;28;20507;-76
2022/07/21 19:40:45;;;;;;;21.40;15.85;;;;;;;17.92;82.67;100677.84;10231202;28;20054;-76
2022/07/21 19:45:56;;;;;;;17.70;14.23;;;;;;;17.63;83.03;100681.81;10239876;28;20065;-77
2022/07/21 19:50:58;;;;;;;20.17;14.70;;;;;;;17.81;82.84;100686.31;10222062;28;20058;-77
2022/07/21 19:56:02;;;;;;;14.27;11.68;;;;;;;17.62;83.07;100681.97;10194489;28;20077;-77
2022/07/21 20:01:06;;;;;;;13.25;11.95;;;;;;;17.55;82.83;100687.22;10230426;28;20175;-76
2022/07/21 20:06:09;;;;;;;16.75;13.32;;;;;;;17.58;82.68;100680.59;10228413;28;20126;-77
2022/07/21 20:11:13;;;;;;;20.38;12.88;;;;;;;17.56;83.12;100680.78;10222115;28;20121;-77
2022/07/21 20:16:17;;;;;;;13.40;10.27;;;;;;;17.60;82.68;100678.56;10239771;28;20058;-78
2022/07/21 20:21:20;;;;;;;15.10;12.63;;;;;;;17.64;82.67;100680.81;10233156;28;20047;-78
2022/07/21 20:26:23;;;;;;;21.95;13.00;;;;;;;17.50;83.48;100688.69;10203179;28;20063;-78
2022/07/21 20:31:29;;;;;;;22.20;14.32;;;;;;;17.71;82.54;100689.16;10209944;28;20103;-78
2022/07/21 20:36:33;;;;;;;18.95;14.30;;;;;;;17.90;81.93;100686.16;10201749;28;20048;-78
2022/07/21 20:41:36;;;;;;;22.90;13.18;;;;;;;17.88;81.71;100681.91;10200215;28;20675;-78
2022/07/21 20:46:40;;;;;;;16.52;13.23;;;;;;;17.48;83.12;100692.44;10203934;28;20075;-78
2022/07/21 20:51:43;;;;;;;16.90;14.30;;;;;;;17.77;82.02;100698.50;10221112;28;20142;-78
2022/07/21 20:56:46;;;;;;;15.80;14.10;;;;;;;17.41;83.34;100701.38;10197404;28;20067;-78
2022/07/21 21:02:12;;;;;;;22.90;16.20;;;;;;;17.67;82.22;100699.50;10194490;28;20075;-77
2022/07/21 21:07:15;;;;;;;22.85;15.05;;;;;;;17.62;82.56;100695.56;10209989;28;20128;-78
2022/07/21 21:12:17;;;;;;;19.75;16.02;;;;;;;17.73;82.34;100687.13;10206752;28;20095;-78
2022/07/21 21:17:22;;;;;;;19.88;16.80;;;;;;;17.43;82.74;100692.06;10198693;28;20074;-78
2022/07/21 21:22:24;;;;;;;21.33;16.88;;;;;;;17.45;83.93;100692.78;10198282;28;20151;-78
2022/07/21 21:27:30;;;;;;;24.88;17.67;;;;;;;17.53;83.34;100705.53;10195778;28;20047;-78
2022/07/21 21:32:34;;;;;;;26.90;20.45;;;;;;;17.68;83.57;100698.47;10188598;28;20058;-78
2022/07/21 21:37:39;;;;;;;23.77;18.23;;;;;;;17.79;82.48;100699.19;10194679;28;20062;-78
2022/07/21 21:42:42;;;;;;;27.10;18.42;;;;;;;17.64;83.34;100688.13;10204658;28;20075;-79
2022/07/21 21:47:47;;;;;;;25.27;18.77;;;;;;;17.72;82.91;100690.88;10193913;28;20541;-78
2022/07/21 21:52:50;;;;;;;23.55;18.50;;;;;;;17.77;82.73;100690.34;10191295;28;20272;-79
2022/07/21 21:57:53;;;;;;;26.13;19.05;;;;;;;17.81;82.73;100689.88;10192961;28;20530;-78
2022/07/21 22:02:57;;;;;;;24.10;18.55;;;;;;;17.75;82.92;100693.25;10187475;28;20054;-78
2022/07/21 22:08:00;;;;;;;23.52;18.13;;;;;;;17.82;82.30;100691.56;10201402;28;20454;-78
2022/07/21 22:13:04;;;;;;;32.15;20.42;;;;;;;17.95;82.21;100699.25;10207695;28;20199;-78
2022/07/21 22:18:08;;;;;;;29.13;18.63;;;;;;;17.60;83.42;100697.59;10191361;28;20051;-78
2022/07/21 22:23:11;;;;;;;25.60;17.23;;;;;;;17.43;84.75;100705.66;10189893;28;20515;-77
2022/07/21 22:28:14;;;;;;;25.25;20.15;;;;;;;17.51;84.34;100704.00;10194481;28;20043;-78
2022/07/21 22:33:19;;;;;;;29.63;19.98;;;;;;;17.82;82.66;100713.28;10200480;28;20167;-79
2022/07/21 22:38:21;;;;;;;33.20;20.08;;;;;;;17.83;82.81;100712.31;10201471;28;20149;-79
2022/07/21 22:43:24;;;;;;;31.60;22.27;;;;;;;17.80;82.77;100707.19;10212173;28;20046;-78
2022/07/21 22:48:29;;;;;;;28.95;21.25;;;;;;;17.79;82.66;100710.06;10209566;28;20480;-79
2022/07/21 22:53:31;;;;;;;30.02;22.08;;;;;;;17.80;82.86;100711.75;10194235;28;20142;-79
2022/07/21 22:58:34;;;;;;;30.20;22.73;;;;;;;17.72;83.58;100709.88;10202902;28;20562;-79
2022/07/21 23:03:38;;;;;;;33.28;23.27;;;;;;;17.37;84.21;100703.59;10203988;28;20051;-78